SBI3750 LTFM-URSS
Flight info
| Callsign | SBI3750 |
|---|---|
| Flight time | N/A |
| Altitude | 35000 |
| Route | EKAWE1D/35L EKAWE UT641 ABSAX UN743 ODIRA/K0846F350 G487 ERSAR DCT BEMES DCT VULFI DCT TUVGI DCT EVZUN DCT ZIZAR DCT VAZLU DCT UZZID DCT NOKLI N72 WGD G481 OBABI DCT VUVNE DCT GEKPA L736 OLOPI OLOPI3N |
| Aircraft | A320/M-SDE3FGHIRWY/LB1 |
Departure
| Time | N/A |
|---|---|
| Airport | İstanbul Airport (LTFM) |
Arrival
| Time | 2026-05-06 18:35 |
|---|---|
| Airport | Sochi International Airport (URSS) |
| Time | Latitude | Longitude | Altitude | Speed | Heading |
|---|---|---|---|---|---|
| 2026-05-06 18:09 | 42.70021 | 36.82177 | 34294 ft | 464 kts | 82° |
| 2026-05-06 18:09 | 42.70424 | 36.86535 | 33970 ft | 463 kts | 82° |
| 2026-05-06 18:10 | 42.70998 | 36.90832 | 33599 ft | 462 kts | 77° |
| 2026-05-06 18:10 | 42.71806 | 36.95046 | 33061 ft | 460 kts | 73° |
| 2026-05-06 18:10 | 42.72740 | 36.99202 | 32533 ft | 458 kts | 72° |
| 2026-05-06 18:10 | 42.73690 | 37.03270 | 32018 ft | 456 kts | 73° |
| 2026-05-06 18:11 | 42.74624 | 37.07435 | 31499 ft | 453 kts | 74° |
| 2026-05-06 18:11 | 42.75482 | 37.11545 | 31013 ft | 451 kts | 75° |
| 2026-05-06 18:11 | 42.76283 | 37.15654 | 30565 ft | 449 kts | 76° |
| 2026-05-06 18:11 | 42.77040 | 37.19716 | 30111 ft | 447 kts | 76° |
| 2026-05-06 18:12 | 42.77789 | 37.23817 | 29594 ft | 447 kts | 76° |
| 2026-05-06 18:12 | 42.78542 | 37.27978 | 29069 ft | 448 kts | 77° |
| 2026-05-06 18:12 | 42.79189 | 37.32083 | 28577 ft | 450 kts | 78° |
| 2026-05-06 18:12 | 42.79861 | 37.36249 | 28042 ft | 451 kts | 77° |
| 2026-05-06 18:13 | 42.80604 | 37.40409 | 27014 ft | 453 kts | 76° |
| 2026-05-06 18:13 | 42.81407 | 37.44586 | 25880 ft | 457 kts | 75° |
| 2026-05-06 18:13 | 42.82242 | 37.48772 | 24735 ft | 462 kts | 74° |
| 2026-05-06 18:13 | 42.83087 | 37.53015 | 23783 ft | 466 kts | 75° |
| 2026-05-06 18:14 | 42.83922 | 37.57292 | 23418 ft | 468 kts | 75° |
| 2026-05-06 18:14 | 42.84738 | 37.61582 | 22966 ft | 467 kts | 75° |
| 2026-05-06 18:14 | 42.85537 | 37.65857 | 22531 ft | 464 kts | 75° |
| 2026-05-06 18:14 | 42.86325 | 37.70117 | 22098 ft | 462 kts | 75° |
| 2026-05-06 18:15 | 42.87107 | 37.74348 | 21685 ft | 460 kts | 75° |
| 2026-05-06 18:15 | 42.87889 | 37.78563 | 21263 ft | 456 kts | 75° |
| 2026-05-06 18:15 | 42.88656 | 37.82709 | 20851 ft | 444 kts | 75° |
| 2026-05-06 18:15 | 42.89392 | 37.86708 | 20445 ft | 437 kts | 75° |
| 2026-05-06 18:16 | 42.90130 | 37.90708 | 20040 ft | 434 kts | 75° |
| 2026-05-06 18:16 | 42.90865 | 37.94708 | 19652 ft | 432 kts | 75° |
| 2026-05-06 18:16 | 42.91591 | 37.98673 | 19362 ft | 431 kts | 75° |
| 2026-05-06 18:16 | 42.92322 | 38.02682 | 19150 ft | 430 kts | 75° |
| 2026-05-06 18:17 | 42.93035 | 38.06586 | 18935 ft | 429 kts | 75° |
| 2026-05-06 18:17 | 42.93757 | 38.10533 | 18610 ft | 428 kts | 75° |
| 2026-05-06 18:17 | 42.94479 | 38.14459 | 18271 ft | 426 kts | 75° |
| 2026-05-06 18:17 | 42.95199 | 38.18379 | 17886 ft | 424 kts | 75° |
| 2026-05-06 18:18 | 42.95908 | 38.22267 | 17512 ft | 423 kts | 75° |
| 2026-05-06 18:18 | 42.96618 | 38.26178 | 17144 ft | 425 kts | 75° |
| 2026-05-06 18:18 | 42.97326 | 38.30085 | 16780 ft | 424 kts | 75° |
| 2026-05-06 18:18 | 42.98028 | 38.33994 | 16420 ft | 422 kts | 76° |
| 2026-05-06 18:19 | 42.98719 | 38.37882 | 16064 ft | 420 kts | 76° |
| 2026-05-06 18:19 | 42.99407 | 38.41751 | 15710 ft | 419 kts | 76° |
| 2026-05-06 18:19 | 43.00098 | 38.45611 | 15354 ft | 416 kts | 76° |
| 2026-05-06 18:19 | 43.00785 | 38.49438 | 15006 ft | 415 kts | 76° |
| 2026-05-06 18:20 | 43.01472 | 38.53262 | 14670 ft | 414 kts | 76° |
| 2026-05-06 18:20 | 43.02154 | 38.57078 | 14329 ft | 413 kts | 76° |
| 2026-05-06 18:20 | 43.02829 | 38.60877 | 13995 ft | 411 kts | 76° |
| 2026-05-06 18:20 | 43.03500 | 38.64660 | 13625 ft | 409 kts | 76° |
| 2026-05-06 18:21 | 43.04171 | 38.68434 | 13255 ft | 407 kts | 76° |
| 2026-05-06 18:21 | 43.04828 | 38.72147 | 13127 ft | 406 kts | 76° |
| 2026-05-06 18:21 | 43.05496 | 38.75946 | 13163 ft | 406 kts | 76° |
| 2026-05-06 18:21 | 43.06153 | 38.79701 | 13160 ft | 407 kts | 76° |
| 2026-05-06 18:22 | 43.06803 | 38.83426 | 13161 ft | 407 kts | 76° |
| 2026-05-06 18:22 | 43.07469 | 38.87244 | 12962 ft | 408 kts | 76° |
| 2026-05-06 18:22 | 43.08124 | 38.90993 | 12560 ft | 405 kts | 76° |
| 2026-05-06 18:22 | 43.08779 | 38.94732 | 12219 ft | 403 kts | 76° |
| 2026-05-06 18:23 | 43.09421 | 38.98406 | 11878 ft | 393 kts | 76° |
| 2026-05-06 18:23 | 43.10035 | 39.01932 | 11536 ft | 371 kts | 76° |
| 2026-05-06 18:23 | 43.10614 | 39.05270 | 11194 ft | 351 kts | 76° |
| 2026-05-06 18:23 | 43.11164 | 39.08440 | 10869 ft | 333 kts | 76° |
| 2026-05-06 18:24 | 43.11686 | 39.11457 | 10556 ft | 319 kts | 76° |
| 2026-05-06 18:24 | 43.12194 | 39.14397 | 10236 ft | 316 kts | 76° |
| 2026-05-06 18:24 | 43.12694 | 39.17302 | 9933 ft | 312 kts | 76° |
| 2026-05-06 18:24 | 43.13183 | 39.20165 | 9642 ft | 307 kts | 76° |
| 2026-05-06 18:25 | 43.13664 | 39.22989 | 9347 ft | 302 kts | 76° |
| 2026-05-06 18:25 | 43.14138 | 39.25759 | 9138 ft | 294 kts | 76° |
| 2026-05-06 18:25 | 43.14601 | 39.28450 | 9006 ft | 288 kts | 76° |
| 2026-05-06 18:25 | 43.15065 | 39.31117 | 8872 ft | 287 kts | 75° |
| 2026-05-06 18:26 | 43.15551 | 39.33754 | 8746 ft | 286 kts | 75° |
| 2026-05-06 18:26 | 43.16046 | 39.36382 | 8623 ft | 285 kts | 75° |
| 2026-05-06 18:26 | 43.16546 | 39.39017 | 8486 ft | 284 kts | 74° |
| 2026-05-06 18:26 | 43.17043 | 39.41630 | 8361 ft | 284 kts | 74° |
| 2026-05-06 18:27 | 43.17540 | 39.44254 | 8158 ft | 283 kts | 74° |
| 2026-05-06 18:27 | 43.18030 | 39.46863 | 7861 ft | 282 kts | 74° |
| 2026-05-06 18:27 | 43.18512 | 39.49455 | 7553 ft | 280 kts | 74° |
| 2026-05-06 18:27 | 43.18988 | 39.52038 | 7086 ft | 278 kts | 74° |
| 2026-05-06 18:28 | 43.19459 | 39.54599 | 6585 ft | 275 kts | 74° |
| 2026-05-06 18:28 | 43.19924 | 39.57124 | 6073 ft | 273 kts | 74° |
| 2026-05-06 18:28 | 43.20388 | 39.59638 | 5574 ft | 271 kts | 74° |
| 2026-05-06 18:28 | 43.20847 | 39.62124 | 5171 ft | 269 kts | 75° |
| 2026-05-06 18:29 | 43.21306 | 39.64610 | 4894 ft | 269 kts | 75° |
| 2026-05-06 18:29 | 43.21765 | 39.67105 | 4622 ft | 268 kts | 75° |
| 2026-05-06 18:29 | 43.22216 | 39.69575 | 4359 ft | 266 kts | 75° |
| 2026-05-06 18:29 | 43.22665 | 39.72034 | 4096 ft | 265 kts | 75° |
| 2026-05-06 18:30 | 43.23112 | 39.74472 | 3879 ft | 262 kts | 75° |
| 2026-05-06 18:30 | 43.23552 | 39.76855 | 3643 ft | 254 kts | 74° |
| 2026-05-06 18:30 | 43.24236 | 39.78999 | 3422 ft | 247 kts | 57° |
| 2026-05-06 18:30 | 43.25357 | 39.80756 | 3190 ft | 244 kts | 39° |
| 2026-05-06 18:31 | 43.26800 | 39.82011 | 2957 ft | 244 kts | 28° |
| 2026-05-06 18:31 | 43.28265 | 39.83099 | 2732 ft | 243 kts | 29° |
| 2026-05-06 18:31 | 43.29749 | 39.84205 | 2493 ft | 242 kts | 29° |
| 2026-05-06 18:31 | 43.31224 | 39.85307 | 2269 ft | 241 kts | 29° |
| 2026-05-06 18:32 | 43.32681 | 39.86397 | 2074 ft | 231 kts | 29° |
| 2026-05-06 18:32 | 43.34048 | 39.87420 | 1992 ft | 217 kts | 28° |
| 2026-05-06 18:32 | 43.35319 | 39.88371 | 1829 ft | 201 kts | 28° |
| 2026-05-06 18:32 | 43.36508 | 39.89262 | 1569 ft | 190 kts | 28° |
| 2026-05-06 18:33 | 43.37637 | 39.90108 | 1321 ft | 179 kts | 28° |
| 2026-05-06 18:33 | 43.38699 | 39.90904 | 1122 ft | 167 kts | 28° |
| 2026-05-06 18:33 | 43.39684 | 39.91644 | 893 ft | 157 kts | 24° |
| 2026-05-06 18:33 | 43.40634 | 39.92359 | 692 ft | 154 kts | 28° |
| 2026-05-06 18:34 | 43.41566 | 39.93055 | 471 ft | 152 kts | 28° |
| 2026-05-06 18:34 | 43.42494 | 39.93754 | 285 ft | 151 kts | 28° |
| 2026-05-06 18:34 | 43.43417 | 39.94441 | 83 ft | 151 kts | 26° |
| 2026-05-06 18:34 | 43.44204 | 39.95030 | 71 ft | 105 kts | 28° |
| 2026-05-06 18:35 | 43.44719 | 39.95421 | 87 ft | 74 kts | 30° |
| 2026-05-06 18:35 | 43.44950 | 39.95575 | 91 ft | 14 kts | 330° |
| 2026-05-06 18:35 | 43.45029 | 39.95526 | 91 ft | 11 kts | 346° |
| 2026-05-06 18:35 | 43.45054 | 39.95470 | 92 ft | 7 kts | 251° |
| 2026-05-06 18:36 | 43.45037 | 39.95410 | 93 ft | 7 kts | 248° |
| 2026-05-06 18:36 | 43.45019 | 39.95348 | 90 ft | 7 kts | 245° |
| 2026-05-06 18:36 | 43.44984 | 39.95254 | 87 ft | 14 kts | 244° |
| 2026-05-06 18:36 | 43.44937 | 39.95116 | 83 ft | 17 kts | 243° |
| 2026-05-06 18:37 | 43.44878 | 39.94957 | 70 ft | 20 kts | 249° |
| 2026-05-06 18:37 | 43.44837 | 39.94837 | 70 ft | 22 kts | 245° |
| 2026-05-06 18:37 | 43.44763 | 39.94613 | 68 ft | 19 kts | 245° |
| 2026-05-06 18:37 | 43.44704 | 39.94442 | 71 ft | 20 kts | 245° |
| 2026-05-06 18:38 | 43.44664 | 39.94324 | 68 ft | 21 kts | 245° |
| 2026-05-06 18:38 | 43.44668 | 39.94234 | 69 ft | 6 kts | 327° |
| 2026-05-06 18:38 | 43.44704 | 39.94211 | 70 ft | 9 kts | 335° |
| 2026-05-06 18:38 | 43.44741 | 39.94187 | 71 ft | 0 kts | 335° |